Time;durP1;ratioP1;P1;durP2;ratioP2;P2;SDS_P1;SDS_P2;PMS_P1;PMS_P2;Temp;Humidity;BMP_temperature;BMP_pressure;BME280_temperature;BME280_humidity;BME280_pressure;Samples;Min_cycle;Max_cycle;Signal;HPM_P1;HPM_P2
2021/03/20 00:00:32;;;;;;;62.10;36.03;;;51.60;2227.20;;;;;;4991300;28;20132;-71
2021/03/20 00:02:58;;;;;;;56.65;35.25;;;51.50;2227.20;;;;;;4990883;28;20113;-69
2021/03/20 00:05:25;;;;;;;51.20;31.60;;;51.50;2227.20;;;;;;4990711;28;20097;-69
2021/03/20 00:07:52;;;;;;;48.78;31.88;;;51.40;2227.20;;;;;;4991522;28;20416;-69
2021/03/20 00:10:19;;;;;;;49.85;31.65;;;51.40;2227.20;;;;;;4991933;28;20019;-70
2021/03/20 00:12:47;;;;;;;59.22;35.88;;;51.40;2227.20;;;;;;4989439;28;20045;-70
2021/03/20 00:15:15;;;;;;;51.90;31.83;;;51.30;2227.20;;;;;;4991930;28;20025;-70
2021/03/20 00:17:42;;;;;;;43.65;27.42;;;51.20;2227.20;;;;;;4992117;28;20094;-70
2021/03/20 00:20:10;;;;;;;44.08;27.33;;;51.20;2227.20;;;;;;4990766;28;20044;-70
2021/03/20 00:22:36;;;;;;;58.50;34.58;;;51.20;2227.20;;;;;;4990991;28;20401;-70
2021/03/20 00:25:04;;;;;;;77.32;41.83;;;51.30;2227.20;;;;;;4990831;28;20018;-69
2021/03/20 00:27:30;;;;;;;44.90;26.70;;;51.20;2227.20;;;;;;4989982;28;20034;-70
2021/03/20 00:29:55;;;;;;;57.28;35.05;;;51.20;2227.20;;;;;;4991226;28;20089;-70
2021/03/20 00:32:21;;;;;;;44.90;28.20;;;51.20;2227.20;;;;;;4991733;28;20061;-70
2021/03/20 00:34:47;;;;;;;40.33;25.33;;;51.20;2227.20;;;;;;4992135;28;20056;-72
2021/03/20 00:37:13;;;;;;;33.05;19.92;;;51.20;2227.20;;;;;;4992971;28;20080;-70
2021/03/20 00:39:41;;;;;;;32.40;20.13;;;51.20;2227.20;;;;;;4991500;28;20065;-70
2021/03/20 00:42:07;;;;;;;30.27;19.38;;;51.20;2227.20;;;;;;4991222;28;20046;-69
2021/03/20 00:44:33;;;;;;;31.05;19.75;;;51.20;2227.20;;;;;;5006920;28;20054;-70
2021/03/20 00:47:00;;;;;;;32.75;20.33;;;51.20;2227.20;;;;;;4992800;28;20046;-68
2021/03/20 00:49:25;;;;;;;30.08;19.50;;;51.20;2227.20;;;;;;4978065;28;20480;-69
2021/03/20 00:51:51;;;;;;;32.70;20.45;;;51.20;2227.20;;;;;;4991185;28;20037;-71
2021/03/20 00:54:18;;;;;;;33.10;20.48;;;26.50;2201.60;;;;;;4988262;28;20380;-75
2021/03/20 00:56:44;;;;;;;35.38;22.55;;;26.50;2201.60;;;;;;4979341;28;20037;-74
2021/03/20 00:59:09;;;;;;;44.65;27.23;;;26.50;2201.60;;;;;;4991463;28;20031;-70
2021/03/20 01:01:35;;;;;;;43.63;26.17;;;26.40;2201.60;;;;;;4984558;28;20038;-70
2021/03/20 01:04:01;;;;;;;42.80;27.00;;;26.30;2201.60;;;;;;4988183;28;20105;-70
2021/03/20 01:06:28;;;;;;;66.60;39.70;;;26.20;2201.60;;;;;;4986240;28;20035;-73
2021/03/20 01:08:56;;;;;;;52.05;31.13;;;26.10;2201.60;;;;;;4989801;28;20470;-71
2021/03/20 01:11:24;;;;;;;45.55;28.38;;;26.10;2201.60;;;;;;4991484;28;20077;-71
2021/03/20 01:13:51;;;;;;;50.55;30.58;;;26.00;2201.60;;;;;;4991668;28;20030;-71
2021/03/20 01:16:18;;;;;;;50.97;30.42;;;25.90;2201.60;;;;;;4991545;28;20022;-71
2021/03/20 01:18:43;;;;;;;55.20;31.70;;;25.70;2201.60;;;;;;4990479;28;20541;-70
2021/03/20 01:21:09;;;;;;;49.85;30.10;;;25.70;2201.60;;;;;;4990839;28;20033;-71
2021/03/20 01:23:37;;;;;;;51.42;31.58;;;25.60;2201.60;;;;;;4990685;28;20510;-70
2021/03/20 01:26:03;;;;;;;49.50;30.92;;;25.60;2201.60;;;;;;4990759;28;20019;-73
2021/03/20 01:28:31;;;;;;;51.13;30.20;;;25.60;2201.60;;;;;;4990211;28;20022;-71
2021/03/20 01:30:58;;;;;;;50.92;30.45;;;25.60;2201.60;;;;;;4996877;23;20351;-67
2021/03/20 01:33:24;;;;;;;56.65;33.63;;;25.60;2201.60;;;;;;4970074;28;20077;-70
2021/03/20 01:35:50;;;;;;;55.92;33.47;;;25.60;2201.60;;;;;;4971309;28;20419;-69
2021/03/20 01:38:17;;;;;;;57.45;33.88;;;25.60;2201.60;;;;;;4970790;28;20030;-69
2021/03/20 01:40:46;;;;;;;59.53;34.13;;;25.70;2201.60;;;;;;4970460;28;20447;-70
2021/03/20 01:43:14;;;;;;;50.92;31.77;;;25.70;2201.60;;;;;;4969977;28;20089;-71
2021/03/20 01:45:41;;;;;;;53.85;32.78;;;25.80;2201.60;;;;;;4968863;28;20697;-68
2021/03/20 01:48:28;;;;;;;51.75;31.40;;;25.70;2201.60;;;;;;4970603;28;20037;-68
2021/03/20 01:50:57;;;;;;;55.63;31.67;;;25.70;2201.60;;;;;;4971182;28;20034;-69
2021/03/20 01:53:32;;;;;;;56.17;32.83;;;25.70;2201.60;;;;;;4970871;28;20662;-74
2021/03/20 01:55:59;;;;;;;52.13;30.98;;;25.80;2201.60;;;;;;4973202;28;20188;-69
2021/03/20 01:58:27;;;;;;;46.63;29.25;;;25.70;2201.60;;;;;;4971646;28;20375;-72
2021/03/20 02:01:04;;;;;;;47.13;28.63;;;25.70;2201.60;;;;;;4972383;28;20060;-73
2021/03/20 02:03:31;;;;;;;52.65;29.80;;;25.70;2201.60;;;;;;4970966;28;20033;-71
2021/03/20 02:05:56;;;;;;;55.20;32.75;;;25.60;2201.60;;;;;;4974316;28;20018;-71
2021/03/20 02:08:22;;;;;;;45.97;28.95;;;25.70;2201.60;;;;;;4974292;28;20034;-70
2021/03/20 02:10:49;;;;;;;79.43;39.00;;;25.60;2201.60;;;;;;4976146;28;20034;-71
2021/03/20 02:13:37;;;;;;;54.17;30.45;;;25.60;2201.60;;;;;;4986511;28;20034;-71
2021/03/20 02:16:21;;;;;;;55.50;30.98;;;25.60;2201.60;;;;;;4990926;28;20022;-70
2021/03/20 02:19:07;;;;;;;73.97;35.03;;;25.70;2201.60;;;;;;4991191;28;20109;-73
2021/03/20 02:21:39;;;;;;;65.88;33.50;;;25.70;2201.60;;;;;;4994497;28;20034;-69
2021/03/20 02:24:05;;;;;;;59.95;31.98;;;25.70;2201.60;;;;;;4994179;28;20053;-69
2021/03/20 02:27:18;;;;;;;56.60;31.27;;;25.70;2201.60;;;;;;4982186;28;20053;-70
2021/03/20 02:30:02;;;;;;;61.10;31.65;;;25.70;2201.60;;;;;;4989043;28;20045;-71
2021/03/20 02:32:36;;;;;;;58.55;31.50;;;25.60;2201.60;;;;;;4991661;28;20217;-72
2021/03/20 02:35:33;;;;;;;55.30;30.63;;;25.60;2201.60;;;;;;4988049;28;20031;-71
2021/03/20 02:38:13;;;;;;;55.75;31.38;;;25.60;2201.60;;;;;;4990715;28;20053;-71
2021/03/20 02:41:00;;;;;;;67.65;35.00;;;25.60;2201.60;;;;;;4993974;28;20061;-71
2021/03/20 02:43:44;;;;;;;66.15;34.80;;;0.90;2201.60;;;;;;4993511;28;20886;-74
2021/03/20 02:46:50;;;;;;;54.00;31.83;;;0.90;2201.60;;;;;;4993847;28;20030;-71
2021/03/20 02:49:37;;;;;;;62.17;34.20;;;0.90;2201.60;;;;;;4973586;28;20031;-80
2021/03/20 02:52:21;;;;;;;64.50;35.30;;;0.90;2201.60;;;;;;4991903;28;20030;-71
2021/03/20 02:55:00;;;;;;;87.65;40.10;;;0.80;2201.60;;;;;;4993884;28;20036;-71
2021/03/20 02:57:34;;;;;;;62.17;32.78;;;0.80;2201.60;;;;;;4994360;28;20467;-71
2021/03/20 03:00:10;;;;;;;52.10;29.30;;;0.80;2201.60;;;;;;4993555;28;20034;-71
2021/03/20 03:02:38;;;;;;;51.28;28.27;;;0.80;2201.60;;;;;;4993859;28;20284;-71
2021/03/20 03:05:16;;;;;;;41.55;24.98;;;0.80;2201.60;;;;;;4992703;28;20029;-72
2021/03/20 03:07:48;;;;;;;45.40;27.30;;;0.70;2201.60;;;;;;4994119;28;20034;-71
2021/03/20 03:10:20;;;;;;;44.45;25.48;;;0.60;2201.60;;;;;;4992084;28;20022;-71
2021/03/20 03:12:50;;;;;;;41.30;25.63;;;0.60;2201.60;;;;;;4993791;28;20026;-74
2021/03/20 03:15:25;;;;;;;41.10;25.10;;;0.50;2201.60;;;;;;4993527;28;20502;-69
2021/03/20 03:18:01;;;;;;;43.25;24.95;;;0.40;2201.60;;;;;;4993777;28;20152;-72
2021/03/20 03:20:31;;;;;;;41.55;24.50;;;0.30;2201.60;;;;;;4993082;28;20061;-71
2021/03/20 03:23:10;;;;;;;40.72;23.17;;;0.30;2201.60;;;;;;4993531;28;20463;-77
2021/03/20 03:25:40;;;;;;;43.00;23.85;;;0.20;2201.60;;;;;;4993503;28;20387;-71
2021/03/20 03:28:09;;;;;;;43.15;24.13;;;0.10;2201.60;;;;;;4993613;28;20077;-71
2021/03/20 03:30:36;;;;;;;46.92;24.45;;;0.00;2201.60;;;;;;4992758;28;20101;-70
2021/03/20 03:33:12;;;;;;;48.78;26.00;;;12.90;2201.60;;;;;;4993486;28;20030;-71
2021/03/20 03:35:43;;;;;;;53.97;26.83;;;13.00;2201.60;;;;;;4993274;28;20027;-71
2021/03/20 03:38:16;;;;;;;67.93;29.38;;;13.00;2201.60;;;;;;4992404;28;20395;-71
2021/03/20 03:40:56;;;;;;;61.85;28.70;;;13.00;2201.60;;;;;;4993061;28;20085;-72
2021/03/20 03:43:22;;;;;;;59.63;28.67;;;13.00;2201.60;;;;;;4981076;28;20031;-71
2021/03/20 03:45:50;;;;;;;57.63;26.77;;;13.00;2201.60;;;;;;4996674;28;20034;-71
2021/03/20 03:48:18;;;;;;;56.10;27.20;;;12.90;2201.60;;;;;;4998149;28;20018;-71
2021/03/20 03:50:44;;;;;;;64.45;30.10;;;12.90;2201.60;;;;;;4992720;28;20014;-71
2021/03/20 03:53:11;;;;;;;51.90;28.40;;;12.90;2201.60;;;;;;4992945;28;20077;-71
2021/03/20 03:55:38;;;;;;;40.97;22.50;;;12.90;2201.60;;;;;;4993221;28;20117;-72
2021/03/20 03:58:42;;;;;;;39.75;21.85;;;12.90;2201.60;;;;;;4993784;28;20030;-71
2021/03/20 04:01:30;;;;;;;38.33;22.58;;;0.00;2201.60;;;;;;4984319;28;20446;-70
2021/03/20 04:04:05;;;;;;;38.30;22.85;;;12.90;2201.60;;;;;;4992910;28;20045;-71
2021/03/20 04:06:51;;;;;;;37.78;21.55;;;0.00;2201.60;;;;;;4992204;28;20022;-71
2021/03/20 04:09:32;;;;;;;34.80;20.42;;;0.00;2201.60;;;;;;4992222;28;20383;-70
2021/03/20 04:12:20;;;;;;;32.10;20.02;;;0.00;2201.60;;;;;;4993129;28;20368;-71
2021/03/20 04:15:14;;;;;;;34.35;19.05;;;0.00;2201.60;;;;;;4992526;28;20030;-70
2021/03/20 04:18:18;;;;;;;39.30;20.52;;;0.00;2201.60;;;;;;4992417;28;20110;-71
2021/03/20 04:20:52;;;;;;;48.42;22.45;;;0.00;2201.60;;;;;;4961786;28;20050;-71
2021/03/20 04:23:24;;;;;;;49.28;22.83;;;0.00;2201.60;;;;;;4979266;28;20042;-71
2021/03/20 04:26:35;;;;;;;54.60;24.95;;;0.00;2201.60;;;;;;4992285;28;20030;-71
2021/03/20 04:29:10;;;;;;;52.78;23.05;;;0.00;2201.60;;;;;;4975105;28;20038;-71
2021/03/20 04:31:48;;;;;;;45.03;21.50;;;0.00;2201.60;;;;;;4992143;28;20038;-70
2021/03/20 04:34:36;;;;;;;38.90;22.50;;;12.90;2201.60;;;;;;4992038;28;20026;-71
2021/03/20 04:37:06;;;;;;;40.22;22.80;;;12.90;2201.60;;;;;;4979613;28;20110;-71
2021/03/20 04:39:36;;;;;;;42.67;24.03;;;12.90;2201.60;;;;;;4991700;28;20113;-71
2021/03/20 04:42:03;;;;;;;40.38;23.05;;;12.90;2201.60;;;;;;4992140;28;20370;-71
2021/03/20 04:44:29;;;;;;;51.05;27.25;;;12.90;2201.60;;;;;;4991665;28;20423;-71
2021/03/20 04:46:56;;;;;;;39.58;22.70;;;12.90;2201.60;;;;;;4992041;28;20479;-70
2021/03/20 04:49:31;;;;;;;40.90;21.65;;;13.00;2201.60;;;;;;4998856;28;20028;-71
2021/03/20 04:52:08;;;;;;;31.67;18.23;;;13.10;2201.60;;;;;;4991959;28;20089;-70
2021/03/20 04:54:34;;;;;;;32.88;19.48;;;13.00;2201.60;;;;;;4992014;28;20137;-71
2021/03/20 04:57:09;;;;;;;34.20;18.88;;;13.00;2201.60;;;;;;4991873;28;20479;-70
2021/03/20 04:59:51;;;;;;;34.63;19.40;;;12.90;2201.60;;;;;;4991583;28;20398;-70
2021/03/20 05:02:33;;;;;;;32.97;19.30;;;12.90;2201.60;;;;;;4991531;28;20029;-70
2021/03/20 05:05:28;;;;;;;31.13;18.02;;;0.00;2201.60;;;;;;4991632;28;20057;-70
2021/03/20 05:08:00;;;;;;;33.75;18.75;;;0.10;2201.60;;;;;;4979079;28;20050;-70
2021/03/20 05:10:44;;;;;;;37.72;21.70;;;0.10;2201.60;;;;;;4991384;28;20386;-71
2021/03/20 05:13:25;;;;;;;36.47;20.98;;;0.10;2201.60;;;;;;4991781;28;20157;-71
2021/03/20 05:15:59;;;;;;;35.25;20.88;;;0.30;2201.60;;;;;;4991515;28;20025;-71
2021/03/20 05:18:25;;;;;;;43.83;24.45;;;0.50;2201.60;;;;;;4991349;28;20026;-70
2021/03/20 05:20:51;;;;;;;46.08;25.08;;;0.70;2201.60;;;;;;4990975;28;20027;-70
2021/03/20 05:23:16;;;;;;;51.13;28.98;;;0.90;2201.60;;;;;;4991888;28;20881;-71
2021/03/20 05:25:42;;;;;;;49.17;29.10;;;25.60;2201.60;;;;;;4991278;28;20023;-71
2021/03/20 05:28:08;;;;;;;50.10;29.90;;;25.70;2201.60;;;;;;4990845;28;20118;-73
2021/03/20 05:30:33;;;;;;;44.90;26.20;;;25.80;2201.60;;;;;;4991058;28;20514;-70
2021/03/20 05:32:59;;;;;;;43.92;25.10;;;26.00;2201.60;;;;;;4991483;28;20026;-71
2021/03/20 05:35:26;;;;;;;42.55;24.42;;;26.10;2201.60;;;;;;4991284;28;20444;-71
2021/03/20 05:37:52;;;;;;;45.10;25.60;;;26.20;2201.60;;;;;;4991286;28;20049;-71
2021/03/20 05:40:28;;;;;;;50.20;26.95;;;26.30;2201.60;;;;;;4991521;28;20475;-70
2021/03/20 05:42:56;;;;;;;47.47;27.13;;;26.40;2201.60;;;;;;4990656;28;20038;-71
2021/03/20 05:45:32;;;;;;;68.70;38.70;;;51.20;2227.20;;;;;;4991197;28;20093;-70
2021/03/20 05:48:18;;;;;;;51.35;33.22;;;51.30;2227.20;;;;;;4998020;28;20498;-71
2021/03/20 05:50:54;;;;;;;55.20;32.67;;;51.60;2227.20;;;;;;4991375;28;20019;-70
2021/03/20 05:53:53;;;;;;;59.03;30.38;;;51.80;2227.20;;;;;;4990860;28;20470;-71
2021/03/20 05:57:03;;;;;;;67.70;34.50;;;52.10;2227.20;;;;;;4990883;28;20045;-70
2021/03/20 06:00:00;;;;;;;67.63;31.85;;;76.90;2227.20;;;;;;4989187;28;20027;-70
2021/03/20 06:02:47;;;;;;;80.95;37.72;;;77.20;2227.20;;;;;;4980261;28;20154;-71
2021/03/20 06:05:57;;;;;;;76.03;36.90;;;77.20;2227.20;;;;;;4990671;28;20054;-70
2021/03/20 06:08:53;;;;;;;69.50;35.13;;;77.20;2227.20;;;;;;4988770;28;20078;-70
2021/03/20 06:11:35;;;;;;;76.07;34.63;;;77.40;2227.20;;;;;;4974022;28;20030;-70
2021/03/20 06:14:24;;;;;;;76.90;34.58;;;77.40;2227.20;;;;;;4991338;28;20027;-71
2021/03/20 06:17:27;;;;;;;72.13;31.60;;;77.60;2227.20;;;;;;4990369;28;20026;-70
2021/03/20 06:19:59;;;;;;;51.90;25.63;;;77.60;2227.20;;;;;;4979667;28;20471;-71
2021/03/20 06:22:41;;;;;;;45.95;24.27;;;102.60;2227.20;;;;;;4990762;28;20034;-70
2021/03/20 06:25:19;;;;;;;36.28;21.63;;;102.80;2227.20;;;;;;4991176;28;20034;-70
2021/03/20 06:27:52;;;;;;;38.20;22.75;;;103.10;2227.20;;;;;;4990775;28;20015;-71
2021/03/20 06:30:39;;;;;;;32.00;21.13;;;103.20;2227.20;;;;;;4990561;28;20049;-70
2021/03/20 06:33:25;;;;;;;33.65;21.90;;;103.30;2227.20;;;;;;4990921;28;20547;-71
2021/03/20 06:36:11;;;;;;;33.42;21.17;;;128.10;2252.80;;;;;;4990918;28;20042;-70
2021/03/20 06:39:02;;;;;;;34.08;21.23;;;128.20;2252.80;;;;;;4979697;28;20026;-70
2021/03/20 06:41:48;;;;;;;34.47;21.30;;;103.30;2227.20;;;;;;4968591;28;20050;-71
2021/03/20 06:44:22;;;;;;;34.25;20.83;;;128.30;2252.80;;;;;;4994445;28;20025;-71
2021/03/20 06:46:49;;;;;;;31.25;20.17;;;128.20;2252.80;;;;;;4994074;28;20034;-73
2021/03/20 06:49:24;;;;;;;31.98;20.38;;;128.70;2252.80;;;;;;5000639;28;20081;-70
2021/03/20 06:51:51;;;;;;;31.13;20.23;;;153.70;2252.80;;;;;;4994489;28;20050;-69
2021/03/20 06:54:20;;;;;;;30.73;19.75;;;154.30;2227.20;;;;;;4993988;28;20026;-70
2021/03/20 06:56:48;;;;;;;30.05;19.98;;;179.60;2150.40;;;;;;4993739;28;20026;-70
2021/03/20 06:59:14;;;;;;;30.40;20.40;;;179.90;2073.60;;;;;;4993909;28;20077;-70
2021/03/20 07:02:12;;;;;;;32.75;20.80;;;205.00;2048.00;;;;;;4993831;28;20030;-69
2021/03/20 07:04:52;;;;;;;31.85;21.30;;;205.20;1996.80;;;;;;4965908;28;20069;-70
2021/03/20 07:07:57;;;;;;;31.00;21.25;;;205.30;1971.20;;;;;;4981058;28;20034;-69
2021/03/20 07:10:22;;;;;;;36.00;23.13;;;205.50;1945.60;;;;;;4993293;28;20019;-70
2021/03/20 07:13:17;;;;;;;39.05;24.83;;;205.10;1971.20;;;;;;4993621;28;20057;-71
2021/03/20 07:15:44;;;;;;;36.72;25.05;;;205.30;1945.60;;;;;;4992388;28;20531;-70
2021/03/20 07:18:32;;;;;;;39.08;24.98;;;205.60;1920.00;;;;;;4993422;28;20129;-69
2021/03/20 07:21:02;;;;;;;36.22;23.90;;;230.40;1894.40;;;;;;4993756;28;20026;-69
2021/03/20 07:23:29;;;;;;;34.80;23.98;;;230.60;1868.80;;;;;;4993438;28;20483;-71
2021/03/20 07:26:12;;;;;;;38.88;26.13;;;231.10;1843.20;;;;;;4993574;28;20023;-70
2021/03/20 07:28:51;;;;;;;38.13;25.83;;;256.10;1766.40;;;;;;4994154;28;20495;-70
2021/03/20 07:31:18;;;;;;;33.55;24.40;;;256.60;1740.80;;;;;;4993328;28;20149;-70
2021/03/20 07:33:54;;;;;;;31.70;21.33;;;281.70;1689.60;;;;;;4993539;28;20022;-69
2021/03/20 07:36:37;;;;;;;33.97;26.58;;;282.10;1612.80;;;;;;4993131;28;20019;-69
2021/03/20 07:39:23;;;;;;;34.25;23.27;;;282.50;1536.00;;;;;;4993056;28;20029;-69
2021/03/20 07:41:51;;;;;;;68.30;37.95;;;308.10;1536.00;;;;;;4993298;28;20093;-70
2021/03/20 07:44:17;;;;;;;26.13;20.00;;;332.90;1536.00;;;;;;4993309;28;20026;-69
2021/03/20 07:46:43;;;;;;;22.60;17.08;;;333.30;1484.80;;;;;;4992951;28;20010;-69
2021/03/20 07:49:26;;;;;;;24.88;18.52;;;308.10;1433.60;;;;;;4999215;28;20027;-69
2021/03/20 07:51:54;;;;;;;23.48;17.50;;;332.80;1484.80;;;;;;4992427;28;20022;-69
2021/03/20 07:54:40;;;;;;;24.35;18.30;;;333.40;1433.60;;;;;;4993184;28;20022;-69
2021/03/20 07:57:12;;;;;;;23.77;17.65;;;358.40;1408.00;;;;;;4992794;28;20026;-69
2021/03/20 07:59:46;;;;;;;23.15;17.10;;;358.70;1382.40;;;;;;4992867;28;20793;-69
2021/03/20 08:02:32;;;;;;;33.60;22.95;;;358.50;1382.40;;;;;;4979804;28;20022;-70
2021/03/20 08:05:21;;;;;;;39.13;24.73;;;358.50;1356.80;;;;;;4992760;28;20026;-69
2021/03/20 08:07:52;;;;;;;32.75;23.40;;;384.20;1331.20;;;;;;4992665;28;20034;-70
2021/03/20 08:10:23;;;;;;;29.42;21.30;;;384.10;1280.00;;;;;;4978494;28;20484;-70
2021/03/20 08:13:14;;;;;;;27.40;20.00;;;409.80;1280.00;;;;;;4974194;28;20151;-69
2021/03/20 08:15:41;;;;;;;27.88;19.15;;;410.50;1254.40;;;;;;4975487;28;20142;-69
2021/03/20 08:18:34;;;;;;;27.13;20.30;;;435.60;1228.80;;;;;;4974408;28;20051;-71
2021/03/20 08:20:59;;;;;;;26.88;19.90;;;460.80;1177.60;;;;;;4975210;28;20033;-69
2021/03/20 08:24:00;;;;;;;26.88;20.30;;;461.10;1152.00;;;;;;4986298;28;20023;-69
2021/03/20 08:26:46;;;;;;;27.38;19.83;;;461.70;1152.00;;;;;;4976289;28;20035;-70
2021/03/20 08:29:24;;;;;;;31.67;22.98;;;461.20;1152.00;;;;;;4977149;28;20031;-69
2021/03/20 08:32:06;;;;;;;36.40;26.27;;;435.30;1177.60;;;;;;4976369;28;20034;-69
2021/03/20 08:34:45;;;;;;;26.92;19.52;;;384.00;1280.00;;;;;;4979066;28;20022;-69
2021/03/20 08:37:41;;;;;;;25.17;18.50;;;359.00;1305.60;;;;;;4990361;28;20089;-70
2021/03/20 08:40:28;;;;;;;24.13;17.90;;;358.60;1331.20;;;;;;4988605;28;20030;-69
2021/03/20 08:43:09;;;;;;;23.08;17.23;;;358.70;1331.20;;;;;;4984489;28;20034;-69
2021/03/20 08:45:40;;;;;;;24.50;17.27;;;359.00;1331.20;;;;;;4978167;28;20022;-70
2021/03/20 08:48:31;;;;;;;26.33;17.90;;;384.20;1280.00;;;;;;4993095;28;20110;-70
2021/03/20 08:51:23;;;;;;;27.73;19.75;;;384.70;1254.40;;;;;;4977235;28;20022;-69
2021/03/20 08:53:54;;;;;;;29.60;21.05;;;384.60;1254.40;;;;;;4979699;28;20142;-69
2021/03/20 08:56:58;;;;;;;24.50;18.27;;;409.60;1280.00;;;;;;4974434;28;20053;-69
2021/03/20 08:59:31;;;;;;;25.02;18.17;;;435.20;1203.20;;;;;;4983585;28;20066;-69
2021/03/20 09:02:02;;;;;;;29.13;20.55;;;461.20;1177.60;;;;;;4976351;28;20038;-69
2021/03/20 09:04:33;;;;;;;25.02;17.85;;;487.00;1075.20;;;;;;4991544;28;20050;-69
2021/03/20 09:07:28;;;;;;;23.50;16.77;;;512.80;1024.00;;;;;;4988876;28;20014;-69
2021/03/20 09:09:59;;;;;;;23.40;18.98;;;538.50;998.40;;;;;;4978336;28;20066;-70
2021/03/20 09:12:31;;;;;;;24.48;20.15;;;563.80;947.20;;;;;;4989002;28;20129;-69
2021/03/20 09:14:57;;;;;;;24.13;19.55;;;563.80;947.20;;;;;;4991763;28;20161;-70
2021/03/20 09:17:44;;;;;;;27.65;22.05;;;614.70;896.00;;;;;;4989474;28;20078;-69
2021/03/20 09:20:21;;;;;;;37.20;25.40;;;614.90;870.40;;;;;;4990239;28;20054;-69
2021/03/20 09:22:48;;;;;;;30.42;25.13;;;614.80;870.40;;;;;;4989355;28;20450;-69
2021/03/20 09:25:36;;;;;;;29.38;23.23;;;614.90;870.40;;;;;;4990600;28;20031;-69
2021/03/20 09:28:12;;;;;;;28.35;21.83;;;615.30;870.40;;;;;;4990333;28;20542;-69
2021/03/20 09:30:43;;;;;;;30.55;24.63;;;615.30;844.80;;;;;;4990070;28;20058;-69
2021/03/20 09:33:26;;;;;;;26.95;21.10;;;614.40;870.40;;;;;;4990131;28;20109;-70
2021/03/20 09:36:21;;;;;;;23.15;18.27;;;614.40;870.40;;;;;;4989942;28;20027;-69
2021/03/20 09:38:52;;;;;;;25.95;20.63;;;589.20;896.00;;;;;;4963151;28;20180;-70
2021/03/20 09:41:21;;;;;;;26.75;21.60;;;563.90;947.20;;;;;;4990298;28;20034;-69
2021/03/20 09:43:58;;;;;;;32.55;26.48;;;563.90;921.60;;;;;;4988472;28;20026;-71
2021/03/20 09:46:34;;;;;;;29.85;26.05;;;564.10;921.60;;;;;;4974884;28;20027;-70
2021/03/20 09:49:00;;;;;;;24.52;19.60;;;563.60;947.20;;;;;;4981018;28;20026;-70
2021/03/20 09:51:47;;;;;;;24.80;20.52;;;563.50;972.80;;;;;;4985598;28;20279;-70
2021/03/20 09:54:33;;;;;;;22.80;17.67;;;563.70;947.20;;;;;;4974164;28;20031;-70
2021/03/20 09:59:36;;;;;;;32.70;24.60;;;563.60;947.20;;;;;;4971842;28;20027;-70
2021/03/20 10:02:04;;;;;;;32.47;25.05;;;563.80;921.60;;;;;;4972012;28;20074;-69
2021/03/20 10:04:35;;;;;;;22.52;17.70;;;588.80;896.00;;;;;;4973688;28;20023;-71
2021/03/20 10:07:19;;;;;;;19.33;15.95;;;589.50;870.40;;;;;;4976077;28;20031;-71
2021/03/20 10:10:03;;;;;;;21.92;17.15;;;589.50;844.80;;;;;;4973350;28;20369;-69
2021/03/20 10:12:42;;;;;;;16.55;12.52;;;589.20;896.00;;;;;;4990473;28;20030;-71
2021/03/20 10:15:12;;;;;;;18.65;14.95;;;589.20;819.20;;;;;;4994318;28;20030;-69
2021/03/20 10:18:06;;;;;;;16.83;12.63;;;614.40;844.80;;;;;;4994515;28;20021;-70
2021/03/20 10:20:55;;;;;;;14.43;11.63;;;589.70;819.20;;;;;;4994371;28;20022;-70
2021/03/20 10:23:53;;;;;;;14.02;11.27;;;589.40;819.20;;;;;;4994491;28;20105;-69
2021/03/20 10:26:22;;;;;;;13.18;10.38;;;564.10;819.20;;;;;;4994453;28;20034;-68
2021/03/20 10:29:00;;;;;;;24.00;18.10;;;563.20;844.80;;;;;;4994170;28;20026;-69
2021/03/20 10:31:28;;;;;;;20.15;16.17;;;538.00;844.80;;;;;;4982555;28;20050;-72
2021/03/20 10:34:11;;;;;;;17.27;12.25;;;537.60;870.40;;;;;;4988775;28;20049;-71
2021/03/20 10:36:43;;;;;;;14.75;11.15;;;537.70;896.00;;;;;;4992174;28;20018;-69
2021/03/20 10:39:21;;;;;;;14.30;11.10;;;512.80;844.80;;;;;;4987118;28;20047;-69
2021/03/20 10:41:47;;;;;;;14.30;11.02;;;512.50;870.40;;;;;;4987351;28;20084;-69
2021/03/20 10:44:22;;;;;;;12.52;10.25;;;512.50;844.80;;;;;;4987028;28;20029;-69
2021/03/20 10:46:49;;;;;;;21.98;18.67;;;512.30;870.40;;;;;;4993744;28;20029;-71
2021/03/20 10:49:26;;;;;;;14.60;10.85;;;512.20;870.40;;;;;;4994302;28;20023;-69
2021/03/20 10:51:56;;;;;;;14.18;10.23;;;486.90;896.00;;;;;;4993154;28;20030;-69
2021/03/20 10:54:24;;;;;;;16.42;12.35;;;487.00;921.60;;;;;;4993899;28;20045;-70
2021/03/20 10:56:53;;;;;;;16.27;12.43;;;487.30;896.00;;;;;;4992203;28;20037;-70
2021/03/20 10:59:28;;;;;;;13.88;10.50;;;486.90;921.60;;;;;;4984006;28;20038;-73
2021/03/20 11:01:54;;;;;;;12.20;9.68;;;487.10;896.00;;;;;;4987994;28;20027;-71
2021/03/20 11:04:32;;;;;;;14.55;10.60;;;487.30;896.00;;;;;;4992516;28;20061;-69
2021/03/20 11:07:00;;;;;;;16.25;11.85;;;487.30;896.00;;;;;;4988878;28;20415;-68
2021/03/20 11:09:29;;;;;;;14.82;11.73;;;486.80;896.00;;;;;;4981880;28;20026;-68
2021/03/20 11:12:10;;;;;;;11.70;9.23;;;486.40;921.60;;;;;;4985067;28;20037;-72
2021/03/20 11:15:06;;;;;;;13.63;10.55;;;486.60;947.20;;;;;;4974812;28;20054;-69
2021/03/20 11:17:33;;;;;;;12.77;10.43;;;486.90;921.60;;;;;;4978981;28;20109;-70
2021/03/20 11:20:31;;;;;;;15.15;12.07;;;486.40;921.60;;;;;;4983459;28;20085;-70
2021/03/20 11:22:57;;;;;;;14.48;11.40;;;461.20;972.80;;;;;;4965873;28;20051;-70
2021/03/20 11:25:29;;;;;;;14.82;11.05;;;461.40;972.80;;;;;;4983756;28;20031;-74
2021/03/20 11:27:58;;;;;;;17.02;12.00;;;460.90;972.80;;;;;;4987346;28;20033;-70
2021/03/20 11:30:30;;;;;;;16.23;12.13;;;436.10;998.40;;;;;;4980862;28;20085;-69
2021/03/20 11:33:00;;;;;;;13.50;10.48;;;460.80;1024.00;;;;;;4978445;28;20543;-74
2021/03/20 11:35:30;;;;;;;15.18;11.27;;;435.90;998.40;;;;;;4975526;28;20380;-71
2021/03/20 11:38:00;;;;;;;14.32;9.63;;;435.70;998.40;;;;;;4985580;28;20083;-68
2021/03/20 11:40:38;;;;;;;14.40;10.43;;;410.30;1049.60;;;;;;4984457;28;20041;-69
2021/03/20 11:43:24;;;;;;;15.80;12.27;;;409.70;1075.20;;;;;;4986376;28;20026;-69
2021/03/20 11:45:52;;;;;;;14.32;10.50;;;384.70;1075.20;;;;;;4984682;28;20126;-75
2021/03/20 11:48:25;;;;;;;15.38;11.50;;;384.50;1075.20;;;;;;4983067;28;20054;-69
2021/03/20 11:50:57;;;;;;;14.35;10.25;;;384.30;1126.40;;;;;;4974559;28;20022;-70
2021/03/20 11:53:24;;;;;;;22.02;14.73;;;384.20;1152.00;;;;;;4976550;28;20523;-70
2021/03/20 11:55:52;;;;;;;21.10;13.38;;;384.30;1126.40;;;;;;4974226;28;20093;-70
2021/03/20 11:58:38;;;;;;;20.50;13.35;;;384.10;1126.40;;;;;;4974635;28;20039;-67
2021/03/20 12:01:28;;;;;;;16.13;10.70;;;359.30;1126.40;;;;;;4982623;28;20101;-67
2021/03/20 12:03:56;;;;;;;15.77;10.98;;;384.10;1126.40;;;;;;4980530;28;20029;-73
2021/03/20 12:06:24;;;;;;;17.65;11.60;;;384.20;1126.40;;;;;;4987480;28;20034;-67
2021/03/20 12:08:54;;;;;;;19.25;12.52;;;358.90;1126.40;;;;;;4986867;28;20495;-66
2021/03/20 12:11:22;;;;;;;31.70;18.00;;;358.80;1126.40;;;;;;4992845;28;20027;-67
2021/03/20 12:13:55;;;;;;;38.08;20.02;;;359.00;1126.40;;;;;;4987036;28;20034;-71
2021/03/20 12:16:34;;;;;;;25.38;13.85;;;358.80;1126.40;;;;;;4980214;28;20035;-67
2021/03/20 12:19:12;;;;;;;11.80;8.18;;;359.00;1152.00;;;;;;4974039;28;20026;-71
2021/03/20 12:21:56;;;;;;;12.52;9.30;;;359.00;1100.80;;;;;;4977218;28;20035;-73
2021/03/20 12:24:52;;;;;;;16.67;11.15;;;358.90;1100.80;;;;;;4978501;28;20022;-69
2021/03/20 12:27:38;;;;;;;27.65;15.77;;;358.90;1100.80;;;;;;4981117;28;20034;-69
2021/03/20 12:30:21;;;;;;;19.58;11.80;;;358.70;1126.40;;;;;;4980995;28;20157;-70
2021/03/20 12:32:52;;;;;;;25.48;15.13;;;333.70;1126.40;;;;;;4990033;28;20165;-69
2021/03/20 12:35:17;;;;;;;18.20;12.02;;;333.70;1152.00;;;;;;4984246;28;20030;-69
2021/03/20 12:38:07;;;;;;;25.13;15.57;;;333.70;1152.00;;;;;;4986119;28;20030;-69
2021/03/20 12:40:33;;;;;;;32.40;20.27;;;333.20;1126.40;;;;;;4974588;28;20026;-73
2021/03/20 12:43:00;;;;;;;17.95;12.93;;;333.10;1152.00;;;;;;4975794;28;20034;-70
2021/03/20 12:45:28;;;;;;;29.15;19.67;;;333.00;1152.00;;;;;;4979163;28;20391;-69
2021/03/20 12:47:54;;;;;;;28.73;18.55;;;332.90;1152.00;;;;;;4986047;28;20467;-69
2021/03/20 12:50:20;;;;;;;12.38;8.80;;;332.90;1177.60;;;;;;4979651;28;20031;-68